sensor_id;sensor_type;location;lat;lon;timestamp;P1;durP1;ratioP1;P2;durP2;ratioP2
4309;SDS011;2168;53.576;9.980;2023-05-23T00:02:13;3.20;;;3.20;;
4309;SDS011;2168;53.576;9.980;2023-05-23T00:04:39;3.07;;;3.07;;
4309;SDS011;2168;53.576;9.980;2023-05-23T00:07:04;3.20;;;3.20;;
4309;SDS011;2168;53.576;9.980;2023-05-23T00:09:29;3.23;;;3.23;;
4309;SDS011;2168;53.576;9.980;2023-05-23T00:11:55;2.77;;;2.77;;
4309;SDS011;2168;53.576;9.980;2023-05-23T00:14:20;3.40;;;3.40;;
4309;SDS011;2168;53.576;9.980;2023-05-23T00:16:45;3.30;;;3.30;;
4309;SDS011;2168;53.576;9.980;2023-05-23T00:19:13;3.20;;;3.20;;
4309;SDS011;2168;53.576;9.980;2023-05-23T00:21:39;3.00;;;3.00;;
4309;SDS011;2168;53.576;9.980;2023-05-23T00:24:04;2.90;;;2.90;;
4309;SDS011;2168;53.576;9.980;2023-05-23T00:26:29;3.13;;;3.13;;
4309;SDS011;2168;53.576;9.980;2023-05-23T00:28:55;2.40;;;2.40;;
4309;SDS011;2168;53.576;9.980;2023-05-23T00:31:20;2.70;;;2.70;;
4309;SDS011;2168;53.576;9.980;2023-05-23T00:33:46;2.43;;;2.43;;
4309;SDS011;2168;53.576;9.980;2023-05-23T00:36:11;2.50;;;2.50;;
4309;SDS011;2168;53.576;9.980;2023-05-23T00:38:37;2.60;;;2.60;;
4309;SDS011;2168;53.576;9.980;2023-05-23T00:41:04;2.40;;;2.40;;
4309;SDS011;2168;53.576;9.980;2023-05-23T00:43:30;2.37;;;2.37;;
4309;SDS011;2168;53.576;9.980;2023-05-23T00:45:55;2.13;;;2.13;;
4309;SDS011;2168;53.576;9.980;2023-05-23T00:48:21;2.10;;;2.10;;
4309;SDS011;2168;53.576;9.980;2023-05-23T00:50:46;2.20;;;2.20;;
4309;SDS011;2168;53.576;9.980;2023-05-23T00:53:11;2.23;;;2.23;;
4309;SDS011;2168;53.576;9.980;2023-05-23T00:55:37;2.50;;;2.50;;
4309;SDS011;2168;53.576;9.980;2023-05-23T00:58:03;2.43;;;2.43;;
4309;SDS011;2168;53.576;9.980;2023-05-23T01:00:28;2.33;;;2.33;;
4309;SDS011;2168;53.576;9.980;2023-05-23T01:02:54;2.20;;;2.20;;
4309;SDS011;2168;53.576;9.980;2023-05-23T01:05:19;2.37;;;2.37;;
4309;SDS011;2168;53.576;9.980;2023-05-23T01:07:46;2.50;;;2.50;;
4309;SDS011;2168;53.576;9.980;2023-05-23T01:10:12;2.60;;;2.60;;
4309;SDS011;2168;53.576;9.980;2023-05-23T01:15:13;2.57;;;2.57;;
4309;SDS011;2168;53.576;9.980;2023-05-23T01:20:23;2.60;;;2.60;;
4309;SDS011;2168;53.576;9.980;2023-05-23T01:22:58;2.40;;;2.40;;
4309;SDS011;2168;53.576;9.980;2023-05-23T01:28:06;2.80;;;2.80;;
4309;SDS011;2168;53.576;9.980;2023-05-23T01:30:34;2.60;;;2.60;;
4309;SDS011;2168;53.576;9.980;2023-05-23T01:33:00;2.30;;;2.30;;
4309;SDS011;2168;53.576;9.980;2023-05-23T01:35:26;2.50;;;2.50;;
4309;SDS011;2168;53.576;9.980;2023-05-23T01:37:52;2.43;;;2.43;;
4309;SDS011;2168;53.576;9.980;2023-05-23T01:40:17;2.50;;;2.50;;
4309;SDS011;2168;53.576;9.980;2023-05-23T01:42:42;2.10;;;2.10;;
4309;SDS011;2168;53.576;9.980;2023-05-23T01:45:08;2.20;;;2.20;;
4309;SDS011;2168;53.576;9.980;2023-05-23T01:47:33;2.13;;;2.13;;
4309;SDS011;2168;53.576;9.980;2023-05-23T01:49:59;1.97;;;1.97;;
4309;SDS011;2168;53.576;9.980;2023-05-23T01:52:25;1.57;;;1.57;;
4309;SDS011;2168;53.576;9.980;2023-05-23T01:54:50;1.70;;;1.70;;
4309;SDS011;2168;53.576;9.980;2023-05-23T01:57:15;1.60;;;1.60;;
4309;SDS011;2168;53.576;9.980;2023-05-23T01:59:41;1.60;;;1.60;;
4309;SDS011;2168;53.576;9.980;2023-05-23T02:02:06;1.50;;;1.50;;
4309;SDS011;2168;53.576;9.980;2023-05-23T02:04:31;1.40;;;1.40;;
4309;SDS011;2168;53.576;9.980;2023-05-23T02:06:56;1.40;;;1.40;;
4309;SDS011;2168;53.576;9.980;2023-05-23T02:09:22;1.30;;;1.30;;
4309;SDS011;2168;53.576;9.980;2023-05-23T02:11:47;1.40;;;1.40;;
4309;SDS011;2168;53.576;9.980;2023-05-23T02:14:12;1.17;;;1.17;;
4309;SDS011;2168;53.576;9.980;2023-05-23T02:16:37;1.27;;;1.27;;
4309;SDS011;2168;53.576;9.980;2023-05-23T02:19:03;1.00;;;1.00;;
4309;SDS011;2168;53.576;9.980;2023-05-23T02:21:28;1.10;;;1.10;;
4309;SDS011;2168;53.576;9.980;2023-05-23T02:23:53;1.10;;;1.10;;
4309;SDS011;2168;53.576;9.980;2023-05-23T02:26:18;0.93;;;0.93;;
4309;SDS011;2168;53.576;9.980;2023-05-23T02:28:44;1.10;;;1.10;;
4309;SDS011;2168;53.576;9.980;2023-05-23T02:31:09;1.00;;;1.00;;
4309;SDS011;2168;53.576;9.980;2023-05-23T02:33:34;1.13;;;1.13;;
4309;SDS011;2168;53.576;9.980;2023-05-23T02:36:00;1.10;;;1.10;;
4309;SDS011;2168;53.576;9.980;2023-05-23T02:38:26;1.00;;;1.00;;
4309;SDS011;2168;53.576;9.980;2023-05-23T02:40:51;1.00;;;1.00;;
4309;SDS011;2168;53.576;9.980;2023-05-23T02:43:17;1.10;;;1.10;;
4309;SDS011;2168;53.576;9.980;2023-05-23T02:45:43;1.10;;;1.10;;
4309;SDS011;2168;53.576;9.980;2023-05-23T02:48:08;1.20;;;1.20;;
4309;SDS011;2168;53.576;9.980;2023-05-23T02:50:33;1.10;;;1.10;;
4309;SDS011;2168;53.576;9.980;2023-05-23T02:52:58;1.10;;;1.10;;
4309;SDS011;2168;53.576;9.980;2023-05-23T02:55:24;0.90;;;0.90;;
4309;SDS011;2168;53.576;9.980;2023-05-23T02:57:49;1.10;;;1.10;;
4309;SDS011;2168;53.576;9.980;2023-05-23T03:00:15;1.20;;;1.20;;
4309;SDS011;2168;53.576;9.980;2023-05-23T03:02:40;1.10;;;1.10;;
4309;SDS011;2168;53.576;9.980;2023-05-23T03:05:05;1.00;;;1.00;;
4309;SDS011;2168;53.576;9.980;2023-05-23T03:07:31;1.10;;;1.10;;
4309;SDS011;2168;53.576;9.980;2023-05-23T03:09:58;0.90;;;0.90;;
4309;SDS011;2168;53.576;9.980;2023-05-23T03:12:23;0.80;;;0.80;;
4309;SDS011;2168;53.576;9.980;2023-05-23T03:14:48;0.90;;;0.90;;
4309;SDS011;2168;53.576;9.980;2023-05-23T03:17:13;1.00;;;1.00;;
4309;SDS011;2168;53.576;9.980;2023-05-23T03:19:39;1.13;;;1.13;;
4309;SDS011;2168;53.576;9.980;2023-05-23T03:22:04;1.10;;;1.10;;
4309;SDS011;2168;53.576;9.980;2023-05-23T03:24:29;1.10;;;1.10;;
4309;SDS011;2168;53.576;9.980;2023-05-23T03:26:55;1.00;;;1.00;;
4309;SDS011;2168;53.576;9.980;2023-05-23T03:29:21;1.00;;;1.00;;
4309;SDS011;2168;53.576;9.980;2023-05-23T03:31:46;1.07;;;1.07;;
4309;SDS011;2168;53.576;9.980;2023-05-23T03:34:11;1.20;;;1.20;;
4309;SDS011;2168;53.576;9.980;2023-05-23T03:36:37;1.00;;;1.00;;
4309;SDS011;2168;53.576;9.980;2023-05-23T03:39:03;1.10;;;1.10;;
4309;SDS011;2168;53.576;9.980;2023-05-23T03:41:28;1.07;;;1.07;;
4309;SDS011;2168;53.576;9.980;2023-05-23T03:43:53;1.10;;;1.10;;
4309;SDS011;2168;53.576;9.980;2023-05-23T03:46:18;0.97;;;0.97;;
4309;SDS011;2168;53.576;9.980;2023-05-23T03:48:44;1.17;;;1.17;;
4309;SDS011;2168;53.576;9.980;2023-05-23T03:51:09;0.90;;;0.90;;
4309;SDS011;2168;53.576;9.980;2023-05-23T03:53:35;1.00;;;1.00;;
4309;SDS011;2168;53.576;9.980;2023-05-23T03:56:00;0.90;;;0.90;;
4309;SDS011;2168;53.576;9.980;2023-05-23T03:58:25;0.90;;;0.90;;
4309;SDS011;2168;53.576;9.980;2023-05-23T04:00:50;0.90;;;0.90;;
4309;SDS011;2168;53.576;9.980;2023-05-23T04:03:17;0.90;;;0.90;;
4309;SDS011;2168;53.576;9.980;2023-05-23T04:05:42;0.80;;;0.80;;
4309;SDS011;2168;53.576;9.980;2023-05-23T04:08:07;0.70;;;0.70;;
4309;SDS011;2168;53.576;9.980;2023-05-23T04:10:33;0.80;;;0.80;;
4309;SDS011;2168;53.576;9.980;2023-05-23T04:12:59;0.80;;;0.80;;
4309;SDS011;2168;53.576;9.980;2023-05-23T04:15:24;0.60;;;0.60;;
4309;SDS011;2168;53.576;9.980;2023-05-23T04:17:49;0.60;;;0.60;;
4309;SDS011;2168;53.576;9.980;2023-05-23T04:20:15;0.70;;;0.70;;
4309;SDS011;2168;53.576;9.980;2023-05-23T04:22:40;0.60;;;0.60;;
4309;SDS011;2168;53.576;9.980;2023-05-23T04:25:06;0.60;;;0.60;;
4309;SDS011;2168;53.576;9.980;2023-05-23T04:27:31;0.60;;;0.60;;
4309;SDS011;2168;53.576;9.980;2023-05-23T04:29:57;0.70;;;0.70;;
4309;SDS011;2168;53.576;9.980;2023-05-23T04:32:24;0.60;;;0.60;;
4309;SDS011;2168;53.576;9.980;2023-05-23T04:34:50;0.80;;;0.80;;
4309;SDS011;2168;53.576;9.980;2023-05-23T04:37:16;0.80;;;0.80;;
4309;SDS011;2168;53.576;9.980;2023-05-23T04:39:41;0.60;;;0.60;;
4309;SDS011;2168;53.576;9.980;2023-05-23T04:42:06;0.70;;;0.70;;
4309;SDS011;2168;53.576;9.980;2023-05-23T04:44:31;0.60;;;0.60;;
4309;SDS011;2168;53.576;9.980;2023-05-23T04:46:57;0.70;;;0.70;;
4309;SDS011;2168;53.576;9.980;2023-05-23T04:49:22;0.83;;;0.83;;
4309;SDS011;2168;53.576;9.980;2023-05-23T04:51:48;0.73;;;0.73;;
4309;SDS011;2168;53.576;9.980;2023-05-23T04:54:13;0.80;;;0.80;;
4309;SDS011;2168;53.576;9.980;2023-05-23T04:56:38;0.70;;;0.70;;
4309;SDS011;2168;53.576;9.980;2023-05-23T04:59:03;0.80;;;0.80;;
4309;SDS011;2168;53.576;9.980;2023-05-23T05:01:29;0.80;;;0.80;;
4309;SDS011;2168;53.576;9.980;2023-05-23T05:03:55;0.80;;;0.80;;
4309;SDS011;2168;53.576;9.980;2023-05-23T05:06:21;0.70;;;0.70;;
4309;SDS011;2168;53.576;9.980;2023-05-23T05:08:46;0.80;;;0.80;;
4309;SDS011;2168;53.576;9.980;2023-05-23T05:11:11;0.70;;;0.70;;
4309;SDS011;2168;53.576;9.980;2023-05-23T05:13:37;0.77;;;0.77;;
4309;SDS011;2168;53.576;9.980;2023-05-23T05:16:02;0.80;;;0.80;;
4309;SDS011;2168;53.576;9.980;2023-05-23T05:18:28;0.70;;;0.70;;
4309;SDS011;2168;53.576;9.980;2023-05-23T05:20:53;0.70;;;0.70;;
4309;SDS011;2168;53.576;9.980;2023-05-23T05:23:18;0.70;;;0.70;;
4309;SDS011;2168;53.576;9.980;2023-05-23T05:25:45;0.80;;;0.80;;
4309;SDS011;2168;53.576;9.980;2023-05-23T05:28:10;0.80;;;0.80;;
4309;SDS011;2168;53.576;9.980;2023-05-23T05:30:35;0.70;;;0.70;;
4309;SDS011;2168;53.576;9.980;2023-05-23T05:33:01;0.80;;;0.80;;
4309;SDS011;2168;53.576;9.980;2023-05-23T05:35:28;0.80;;;0.80;;
4309;SDS011;2168;53.576;9.980;2023-05-23T05:37:53;0.80;;;0.80;;
4309;SDS011;2168;53.576;9.980;2023-05-23T05:40:19;0.80;;;0.80;;
4309;SDS011;2168;53.576;9.980;2023-05-23T05:42:44;0.80;;;0.80;;
4309;SDS011;2168;53.576;9.980;2023-05-23T05:45:09;0.90;;;0.90;;
4309;SDS011;2168;53.576;9.980;2023-05-23T05:47:35;0.90;;;0.90;;
4309;SDS011;2168;53.576;9.980;2023-05-23T05:50:03;0.90;;;0.90;;
4309;SDS011;2168;53.576;9.980;2023-05-23T05:52:28;1.00;;;1.00;;
4309;SDS011;2168;53.576;9.980;2023-05-23T05:54:53;1.00;;;1.00;;
4309;SDS011;2168;53.576;9.980;2023-05-23T05:57:19;1.00;;;1.00;;
4309;SDS011;2168;53.576;9.980;2023-05-23T05:59:44;0.90;;;0.90;;
4309;SDS011;2168;53.576;9.980;2023-05-23T06:02:10;0.90;;;0.90;;
4309;SDS011;2168;53.576;9.980;2023-05-23T06:04:35;0.90;;;0.90;;
4309;SDS011;2168;53.576;9.980;2023-05-23T06:07:01;0.70;;;0.70;;
4309;SDS011;2168;53.576;9.980;2023-05-23T06:09:26;0.70;;;0.70;;
4309;SDS011;2168;53.576;9.980;2023-05-23T06:11:51;0.80;;;0.80;;
4309;SDS011;2168;53.576;9.980;2023-05-23T06:14:16;0.70;;;0.70;;
4309;SDS011;2168;53.576;9.980;2023-05-23T06:16:41;0.63;;;0.63;;
4309;SDS011;2168;53.576;9.980;2023-05-23T06:19:06;0.60;;;0.60;;
4309;SDS011;2168;53.576;9.980;2023-05-23T06:21:32;0.70;;;0.70;;
4309;SDS011;2168;53.576;9.980;2023-05-23T06:23:57;0.80;;;0.80;;
4309;SDS011;2168;53.576;9.980;2023-05-23T06:26:22;0.70;;;0.70;;
4309;SDS011;2168;53.576;9.980;2023-05-23T06:28:48;0.67;;;0.67;;
4309;SDS011;2168;53.576;9.980;2023-05-23T06:31:13;0.63;;;0.63;;
4309;SDS011;2168;53.576;9.980;2023-05-23T06:33:38;0.70;;;0.70;;
4309;SDS011;2168;53.576;9.980;2023-05-23T06:36:03;0.70;;;0.70;;
4309;SDS011;2168;53.576;9.980;2023-05-23T06:38:30;0.90;;;0.90;;
4309;SDS011;2168;53.576;9.980;2023-05-23T06:40:55;1.50;;;1.50;;
4309;SDS011;2168;53.576;9.980;2023-05-23T06:43:20;1.50;;;1.50;;
4309;SDS011;2168;53.576;9.980;2023-05-23T06:45:45;1.40;;;1.40;;
4309;SDS011;2168;53.576;9.980;2023-05-23T06:48:11;1.30;;;1.30;;
4309;SDS011;2168;53.576;9.980;2023-05-23T06:50:36;1.17;;;1.17;;
4309;SDS011;2168;53.576;9.980;2023-05-23T06:53:02;1.20;;;1.20;;
4309;SDS011;2168;53.576;9.980;2023-05-23T06:55:27;1.20;;;1.20;;
4309;SDS011;2168;53.576;9.980;2023-05-23T06:57:52;1.20;;;1.20;;
4309;SDS011;2168;53.576;9.980;2023-05-23T07:00:18;1.20;;;1.20;;
4309;SDS011;2168;53.576;9.980;2023-05-23T07:02:43;1.10;;;1.10;;
4309;SDS011;2168;53.576;9.980;2023-05-23T07:05:12;1.07;;;1.07;;
4309;SDS011;2168;53.576;9.980;2023-05-23T07:07:38;1.00;;;1.00;;
4309;SDS011;2168;53.576;9.980;2023-05-23T07:10:03;1.20;;;1.20;;
4309;SDS011;2168;53.576;9.980;2023-05-23T07:12:29;1.03;;;1.03;;
4309;SDS011;2168;53.576;9.980;2023-05-23T07:14:54;1.10;;;1.10;;
4309;SDS011;2168;53.576;9.980;2023-05-23T07:17:19;1.00;;;1.00;;
4309;SDS011;2168;53.576;9.980;2023-05-23T07:19:44;1.10;;;1.10;;
4309;SDS011;2168;53.576;9.980;2023-05-23T07:22:10;0.90;;;0.90;;
4309;SDS011;2168;53.576;9.980;2023-05-23T07:24:35;1.00;;;1.00;;
4309;SDS011;2168;53.576;9.980;2023-05-23T07:27:01;0.80;;;0.80;;
4309;SDS011;2168;53.576;9.980;2023-05-23T07:29:26;0.80;;;0.80;;
4309;SDS011;2168;53.576;9.980;2023-05-23T07:31:51;0.70;;;0.70;;
4309;SDS011;2168;53.576;9.980;2023-05-23T07:34:17;0.90;;;0.90;;
4309;SDS011;2168;53.576;9.980;2023-05-23T07:36:42;0.60;;;0.60;;
4309;SDS011;2168;53.576;9.980;2023-05-23T07:39:08;0.67;;;0.67;;
4309;SDS011;2168;53.576;9.980;2023-05-23T07:41:33;0.63;;;0.63;;
4309;SDS011;2168;53.576;9.980;2023-05-23T07:43:58;0.57;;;0.57;;
4309;SDS011;2168;53.576;9.980;2023-05-23T07:46:23;0.40;;;0.40;;
4309;SDS011;2168;53.576;9.980;2023-05-23T07:48:49;0.40;;;0.40;;
4309;SDS011;2168;53.576;9.980;2023-05-23T07:51:14;0.40;;;0.40;;
4309;SDS011;2168;53.576;9.980;2023-05-23T07:53:39;0.40;;;0.40;;
4309;SDS011;2168;53.576;9.980;2023-05-23T07:56:05;0.40;;;0.40;;
4309;SDS011;2168;53.576;9.980;2023-05-23T07:58:30;0.40;;;0.40;;
4309;SDS011;2168;53.576;9.980;2023-05-23T08:00:56;0.43;;;0.43;;
4309;SDS011;2168;53.576;9.980;2023-05-23T08:03:22;0.80;;;0.80;;
4309;SDS011;2168;53.576;9.980;2023-05-23T08:05:47;0.50;;;0.50;;
4309;SDS011;2168;53.576;9.980;2023-05-23T08:08:12;0.40;;;0.40;;
4309;SDS011;2168;53.576;9.980;2023-05-23T08:10:38;0.40;;;0.40;;
4309;SDS011;2168;53.576;9.980;2023-05-23T08:13:04;0.40;;;0.40;;
4309;SDS011;2168;53.576;9.980;2023-05-23T08:15:30;0.30;;;0.30;;
4309;SDS011;2168;53.576;9.980;2023-05-23T08:17:56;0.40;;;0.40;;
4309;SDS011;2168;53.576;9.980;2023-05-23T08:20:21;0.40;;;0.40;;
4309;SDS011;2168;53.576;9.980;2023-05-23T08:22:54;0.30;;;0.30;;
4309;SDS011;2168;53.576;9.980;2023-05-23T08:25:22;0.30;;;0.30;;
4309;SDS011;2168;53.576;9.980;2023-05-23T08:27:48;0.40;;;0.40;;
4309;SDS011;2168;53.576;9.980;2023-05-23T08:30:13;0.30;;;0.30;;
4309;SDS011;2168;53.576;9.980;2023-05-23T08:32:39;0.40;;;0.40;;
4309;SDS011;2168;53.576;9.980;2023-05-23T08:35:04;0.40;;;0.40;;
4309;SDS011;2168;53.576;9.980;2023-05-23T08:37:30;0.30;;;0.30;;
4309;SDS011;2168;53.576;9.980;2023-05-23T08:39:56;0.30;;;0.30;;
4309;SDS011;2168;53.576;9.980;2023-05-23T08:42:21;0.40;;;0.40;;
4309;SDS011;2168;53.576;9.980;2023-05-23T08:44:46;0.47;;;0.47;;
4309;SDS011;2168;53.576;9.980;2023-05-23T08:47:11;0.50;;;0.50;;
4309;SDS011;2168;53.576;9.980;2023-05-23T08:49:41;0.50;;;0.50;;
4309;SDS011;2168;53.576;9.980;2023-05-23T08:52:07;0.40;;;0.40;;
4309;SDS011;2168;53.576;9.980;2023-05-23T08:54:35;0.50;;;0.50;;
4309;SDS011;2168;53.576;9.980;2023-05-23T08:57:00;0.50;;;0.50;;
4309;SDS011;2168;53.576;9.980;2023-05-23T08:59:26;0.60;;;0.60;;
4309;SDS011;2168;53.576;9.980;2023-05-23T09:01:51;0.50;;;0.50;;
4309;SDS011;2168;53.576;9.980;2023-05-23T09:04:19;0.80;;;0.80;;
4309;SDS011;2168;53.576;9.980;2023-05-23T09:06:44;0.70;;;0.70;;
4309;SDS011;2168;53.576;9.980;2023-05-23T09:09:09;0.70;;;0.70;;
4309;SDS011;2168;53.576;9.980;2023-05-23T09:11:35;0.60;;;0.60;;
4309;SDS011;2168;53.576;9.980;2023-05-23T09:14:01;0.67;;;0.67;;
4309;SDS011;2168;53.576;9.980;2023-05-23T09:16:31;0.50;;;0.50;;
4309;SDS011;2168;53.576;9.980;2023-05-23T09:18:57;0.70;;;0.70;;
4309;SDS011;2168;53.576;9.980;2023-05-23T09:21:23;0.50;;;0.50;;
4309;SDS011;2168;53.576;9.980;2023-05-23T09:23:48;0.50;;;0.50;;
4309;SDS011;2168;53.576;9.980;2023-05-23T09:26:14;0.57;;;0.57;;
4309;SDS011;2168;53.576;9.980;2023-05-23T09:28:40;0.57;;;0.57;;
4309;SDS011;2168;53.576;9.980;2023-05-23T09:31:07;0.57;;;0.57;;
4309;SDS011;2168;53.576;9.980;2023-05-23T09:36:02;0.50;;;0.50;;
4309;SDS011;2168;53.576;9.980;2023-05-23T09:38:27;0.60;;;0.60;;
4309;SDS011;2168;53.576;9.980;2023-05-23T09:40:53;0.40;;;0.40;;
4309;SDS011;2168;53.576;9.980;2023-05-23T09:43:20;0.40;;;0.40;;
4309;SDS011;2168;53.576;9.980;2023-05-23T09:45:45;0.57;;;0.57;;
4309;SDS011;2168;53.576;9.980;2023-05-23T09:48:11;0.50;;;0.50;;
4309;SDS011;2168;53.576;9.980;2023-05-23T09:50:37;0.50;;;0.50;;
4309;SDS011;2168;53.576;9.980;2023-05-23T09:55:27;0.40;;;0.40;;
4309;SDS011;2168;53.576;9.980;2023-05-23T09:57:52;0.40;;;0.40;;
4309;SDS011;2168;53.576;9.980;2023-05-23T10:00:20;0.40;;;0.40;;
4309;SDS011;2168;53.576;9.980;2023-05-23T10:02:54;0.40;;;0.40;;
4309;SDS011;2168;53.576;9.980;2023-05-23T10:06:06;0.30;;;0.30;;
4309;SDS011;2168;53.576;9.980;2023-05-23T10:08:09;0.40;;;0.40;;
4309;SDS011;2168;53.576;9.980;2023-05-23T10:13:18;0.50;;;0.50;;
4309;SDS011;2168;53.576;9.980;2023-05-23T10:15:44;0.40;;;0.40;;
4309;SDS011;2168;53.576;9.980;2023-05-23T10:18:13;0.50;;;0.50;;
4309;SDS011;2168;53.576;9.980;2023-05-23T10:20:42;0.40;;;0.40;;
4309;SDS011;2168;53.576;9.980;2023-05-23T10:23:08;0.30;;;0.30;;
4309;SDS011;2168;53.576;9.980;2023-05-23T10:25:34;0.40;;;0.40;;
4309;SDS011;2168;53.576;9.980;2023-05-23T10:28:01;0.40;;;0.40;;
4309;SDS011;2168;53.576;9.980;2023-05-23T10:30:27;0.40;;;0.40;;
4309;SDS011;2168;53.576;9.980;2023-05-23T10:32:55;0.40;;;0.40;;
4309;SDS011;2168;53.576;9.980;2023-05-23T10:35:39;0.30;;;0.30;;
4309;SDS011;2168;53.576;9.980;2023-05-23T10:45:46;0.20;;;0.20;;
4309;SDS011;2168;53.576;9.980;2023-05-23T10:48:21;0.30;;;0.30;;
4309;SDS011;2168;53.576;9.980;2023-05-23T10:51:00;0.30;;;0.30;;
4309;SDS011;2168;53.576;9.980;2023-05-23T10:53:25;0.30;;;0.30;;
4309;SDS011;2168;53.576;9.980;2023-05-23T10:55:53;0.27;;;0.27;;
4309;SDS011;2168;53.576;9.980;2023-05-23T10:58:20;0.30;;;0.30;;
4309;SDS011;2168;53.576;9.980;2023-05-23T11:00:53;0.30;;;0.30;;
4309;SDS011;2168;53.576;9.980;2023-05-23T11:04:04;0.30;;;0.30;;
4309;SDS011;2168;53.576;9.980;2023-05-23T11:06:04;0.30;;;0.30;;
4309;SDS011;2168;53.576;9.980;2023-05-23T11:08:39;0.30;;;0.30;;
4309;SDS011;2168;53.576;9.980;2023-05-23T11:11:07;0.30;;;0.30;;
4309;SDS011;2168;53.576;9.980;2023-05-23T11:18:50;0.40;;;0.40;;
4309;SDS011;2168;53.576;9.980;2023-05-23T11:21:15;0.37;;;0.37;;
4309;SDS011;2168;53.576;9.980;2023-05-23T11:23:41;0.30;;;0.30;;
4309;SDS011;2168;53.576;9.980;2023-05-23T11:26:28;0.40;;;0.40;;
4309;SDS011;2168;53.576;9.980;2023-05-23T11:28:56;0.30;;;0.30;;
4309;SDS011;2168;53.576;9.980;2023-05-23T11:31:24;0.40;;;0.40;;
4309;SDS011;2168;53.576;9.980;2023-05-23T11:33:50;0.40;;;0.40;;
4309;SDS011;2168;53.576;9.980;2023-05-23T11:36:15;0.40;;;0.40;;
4309;SDS011;2168;53.576;9.980;2023-05-23T11:38:40;0.40;;;0.40;;
4309;SDS011;2168;53.576;9.980;2023-05-23T11:41:06;0.37;;;0.37;;
4309;SDS011;2168;53.576;9.980;2023-05-23T11:43:31;0.30;;;0.30;;
4309;SDS011;2168;53.576;9.980;2023-05-23T11:45:56;0.40;;;0.40;;
4309;SDS011;2168;53.576;9.980;2023-05-23T11:48:21;0.40;;;0.40;;
4309;SDS011;2168;53.576;9.980;2023-05-23T11:50:50;0.37;;;0.37;;
4309;SDS011;2168;53.576;9.980;2023-05-23T11:53:17;0.40;;;0.40;;
4309;SDS011;2168;53.576;9.980;2023-05-23T11:55:51;0.40;;;0.40;;
4309;SDS011;2168;53.576;9.980;2023-05-23T11:58:18;0.40;;;0.40;;
4309;SDS011;2168;53.576;9.980;2023-05-23T12:00:43;0.50;;;0.50;;
4309;SDS011;2168;53.576;9.980;2023-05-23T12:03:09;0.50;;;0.50;;
4309;SDS011;2168;53.576;9.980;2023-05-23T12:05:35;0.50;;;0.50;;
4309;SDS011;2168;53.576;9.980;2023-05-23T12:08:00;0.50;;;0.50;;
4309;SDS011;2168;53.576;9.980;2023-05-23T12:10:26;0.57;;;0.57;;
4309;SDS011;2168;53.576;9.980;2023-05-23T12:12:51;0.60;;;0.60;;
4309;SDS011;2168;53.576;9.980;2023-05-23T12:15:16;0.60;;;0.60;;
4309;SDS011;2168;53.576;9.980;2023-05-23T12:17:45;0.60;;;0.60;;
4309;SDS011;2168;53.576;9.980;2023-05-23T12:20:10;0.60;;;0.60;;
4309;SDS011;2168;53.576;9.980;2023-05-23T12:22:36;0.60;;;0.60;;
4309;SDS011;2168;53.576;9.980;2023-05-23T12:25:01;0.70;;;0.70;;
4309;SDS011;2168;53.576;9.980;2023-05-23T12:27:27;0.70;;;0.70;;
4309;SDS011;2168;53.576;9.980;2023-05-23T12:30:03;0.80;;;0.80;;
4309;SDS011;2168;53.576;9.980;2023-05-23T12:32:29;0.80;;;0.80;;
4309;SDS011;2168;53.576;9.980;2023-05-23T12:34:54;0.87;;;0.87;;
4309;SDS011;2168;53.576;9.980;2023-05-23T12:37:19;0.87;;;0.87;;
4309;SDS011;2168;53.576;9.980;2023-05-23T12:39:46;0.77;;;0.77;;
4309;SDS011;2168;53.576;9.980;2023-05-23T12:42:11;0.90;;;0.90;;
4309;SDS011;2168;53.576;9.980;2023-05-23T12:44:36;1.00;;;1.00;;
4309;SDS011;2168;53.576;9.980;2023-05-23T12:47:02;0.90;;;0.90;;
4309;SDS011;2168;53.576;9.980;2023-05-23T12:49:27;0.90;;;0.90;;
4309;SDS011;2168;53.576;9.980;2023-05-23T12:51:52;0.80;;;0.80;;
4309;SDS011;2168;53.576;9.980;2023-05-23T12:54:17;0.80;;;0.80;;
4309;SDS011;2168;53.576;9.980;2023-05-23T12:56:43;0.70;;;0.70;;
4309;SDS011;2168;53.576;9.980;2023-05-23T12:59:08;0.70;;;0.70;;
4309;SDS011;2168;53.576;9.980;2023-05-23T13:01:33;0.80;;;0.80;;
4309;SDS011;2168;53.576;9.980;2023-05-23T13:03:59;0.73;;;0.73;;
4309;SDS011;2168;53.576;9.980;2023-05-23T13:06:25;0.90;;;0.90;;
4309;SDS011;2168;53.576;9.980;2023-05-23T13:08:50;1.00;;;1.00;;
4309;SDS011;2168;53.576;9.980;2023-05-23T13:11:16;1.10;;;1.10;;
4309;SDS011;2168;53.576;9.980;2023-05-23T13:13:41;1.10;;;1.10;;
4309;SDS011;2168;53.576;9.980;2023-05-23T13:16:07;0.90;;;0.90;;
4309;SDS011;2168;53.576;9.980;2023-05-23T13:18:33;1.00;;;1.00;;
4309;SDS011;2168;53.576;9.980;2023-05-23T13:20:58;0.90;;;0.90;;
4309;SDS011;2168;53.576;9.980;2023-05-23T13:23:23;0.80;;;0.80;;
4309;SDS011;2168;53.576;9.980;2023-05-23T13:25:50;0.90;;;0.90;;
4309;SDS011;2168;53.576;9.980;2023-05-23T13:28:15;1.00;;;1.00;;
4309;SDS011;2168;53.576;9.980;2023-05-23T13:30:40;0.90;;;0.90;;
4309;SDS011;2168;53.576;9.980;2023-05-23T13:33:06;0.87;;;0.87;;
4309;SDS011;2168;53.576;9.980;2023-05-23T13:35:31;0.80;;;0.80;;
4309;SDS011;2168;53.576;9.980;2023-05-23T13:37:56;0.90;;;0.90;;
4309;SDS011;2168;53.576;9.980;2023-05-23T13:40:21;0.83;;;0.83;;
4309;SDS011;2168;53.576;9.980;2023-05-23T13:42:47;0.80;;;0.80;;
4309;SDS011;2168;53.576;9.980;2023-05-23T13:45:13;0.90;;;0.90;;
4309;SDS011;2168;53.576;9.980;2023-05-23T13:47:38;0.80;;;0.80;;
4309;SDS011;2168;53.576;9.980;2023-05-23T13:50:04;1.10;;;1.10;;
4309;SDS011;2168;53.576;9.980;2023-05-23T13:52:29;1.03;;;1.03;;
4309;SDS011;2168;53.576;9.980;2023-05-23T13:54:55;0.93;;;0.93;;
4309;SDS011;2168;53.576;9.980;2023-05-23T13:57:20;1.10;;;1.10;;
4309;SDS011;2168;53.576;9.980;2023-05-23T13:59:46;1.00;;;1.00;;
4309;SDS011;2168;53.576;9.980;2023-05-23T14:02:11;0.90;;;0.90;;
4309;SDS011;2168;53.576;9.980;2023-05-23T14:04:36;0.97;;;0.97;;
4309;SDS011;2168;53.576;9.980;2023-05-23T14:07:01;1.10;;;1.10;;
4309;SDS011;2168;53.576;9.980;2023-05-23T14:09:27;0.87;;;0.87;;
4309;SDS011;2168;53.576;9.980;2023-05-23T14:11:52;1.10;;;1.10;;
4309;SDS011;2168;53.576;9.980;2023-05-23T14:14:17;0.90;;;0.90;;
4309;SDS011;2168;53.576;9.980;2023-05-23T14:16:43;1.00;;;1.00;;
4309;SDS011;2168;53.576;9.980;2023-05-23T14:19:08;0.90;;;0.90;;
4309;SDS011;2168;53.576;9.980;2023-05-23T14:21:33;0.93;;;0.93;;
4309;SDS011;2168;53.576;9.980;2023-05-23T14:23:59;0.80;;;0.80;;
4309;SDS011;2168;53.576;9.980;2023-05-23T14:26:24;0.77;;;0.77;;
4309;SDS011;2168;53.576;9.980;2023-05-23T14:28:49;0.70;;;0.70;;
4309;SDS011;2168;53.576;9.980;2023-05-23T14:31:15;0.70;;;0.70;;
4309;SDS011;2168;53.576;9.980;2023-05-23T14:33:40;0.80;;;0.80;;
4309;SDS011;2168;53.576;9.980;2023-05-23T14:36:05;0.80;;;0.80;;
4309;SDS011;2168;53.576;9.980;2023-05-23T14:38:30;1.00;;;1.00;;
4309;SDS011;2168;53.576;9.980;2023-05-23T14:40:56;0.80;;;0.80;;
4309;SDS011;2168;53.576;9.980;2023-05-23T14:43:22;0.97;;;0.97;;
4309;SDS011;2168;53.576;9.980;2023-05-23T14:45:48;1.00;;;1.00;;
4309;SDS011;2168;53.576;9.980;2023-05-23T14:48:13;0.90;;;0.90;;
4309;SDS011;2168;53.576;9.980;2023-05-23T14:50:38;0.87;;;0.87;;
4309;SDS011;2168;53.576;9.980;2023-05-23T14:53:04;1.00;;;1.00;;
4309;SDS011;2168;53.576;9.980;2023-05-23T14:55:29;0.87;;;0.87;;
4309;SDS011;2168;53.576;9.980;2023-05-23T14:57:55;0.80;;;0.80;;
4309;SDS011;2168;53.576;9.980;2023-05-23T15:00:20;1.20;;;1.20;;
4309;SDS011;2168;53.576;9.980;2023-05-23T15:02:47;1.10;;;1.10;;
4309;SDS011;2168;53.576;9.980;2023-05-23T15:05:12;1.10;;;1.10;;
4309;SDS011;2168;53.576;9.980;2023-05-23T15:07:39;1.10;;;1.10;;
4309;SDS011;2168;53.576;9.980;2023-05-23T15:10:04;1.07;;;1.07;;
4309;SDS011;2168;53.576;9.980;2023-05-23T15:12:30;1.00;;;1.00;;
4309;SDS011;2168;53.576;9.980;2023-05-23T15:14:55;1.10;;;1.10;;
4309;SDS011;2168;53.576;9.980;2023-05-23T15:17:27;1.00;;;1.00;;
4309;SDS011;2168;53.576;9.980;2023-05-23T15:19:52;1.20;;;1.20;;
4309;SDS011;2168;53.576;9.980;2023-05-23T15:22:18;0.90;;;0.90;;
4309;SDS011;2168;53.576;9.980;2023-05-23T15:24:43;1.00;;;1.00;;
4309;SDS011;2168;53.576;9.980;2023-05-23T15:27:08;1.07;;;1.07;;
4309;SDS011;2168;53.576;9.980;2023-05-23T15:29:33;0.93;;;0.93;;
4309;SDS011;2168;53.576;9.980;2023-05-23T15:32:03;1.03;;;1.03;;
4309;SDS011;2168;53.576;9.980;2023-05-23T15:34:29;1.10;;;1.10;;
4309;SDS011;2168;53.576;9.980;2023-05-23T15:36:54;1.00;;;1.00;;